sensor_id;sensor_type;location;lat;lon;timestamp;pressure;altitude;pressure_sealevel;temperature;humidity
49999;BME280;68071;45.062;7.356;2023-03-03T00:01:59;95194.28;;;2.03;100.00
49999;BME280;68071;45.062;7.356;2023-03-03T00:05:04;95190.34;;;2.01;100.00
49999;BME280;68071;45.062;7.356;2023-03-03T00:08:08;95182.94;;;3.05;100.00
49999;BME280;68071;45.062;7.356;2023-03-03T00:11:13;95177.63;;;3.31;100.00
49999;BME280;68071;45.062;7.356;2023-03-03T00:14:37;95176.84;;;3.31;100.00
49999;BME280;68071;45.062;7.356;2023-03-03T00:17:41;95185.31;;;3.45;98.51
49999;BME280;68071;45.062;7.356;2023-03-03T00:20:48;95171.66;;;3.06;100.00
49999;BME280;68071;45.062;7.356;2023-03-03T00:23:52;95178.41;;;2.93;100.00
49999;BME280;68071;45.062;7.356;2023-03-03T00:27:01;95170.94;;;3.48;99.36
49999;BME280;68071;45.062;7.356;2023-03-03T00:30:38;95173.91;;;3.63;96.97
49999;BME280;68071;45.062;7.356;2023-03-03T00:33:47;95172.22;;;3.55;97.73
49999;BME280;68071;45.062;7.356;2023-03-03T00:36:55;95166.63;;;3.28;100.00
49999;BME280;68071;45.062;7.356;2023-03-03T00:40:18;95160.88;;;3.13;100.00
49999;BME280;68071;45.062;7.356;2023-03-03T00:43:28;95165.47;;;3.72;95.80
49999;BME280;68071;45.062;7.356;2023-03-03T00:46:37;95154.44;;;3.88;93.24
49999;BME280;68071;45.062;7.356;2023-03-03T00:49:41;95158.38;;;3.90;92.58
49999;BME280;68071;45.062;7.356;2023-03-03T00:53:10;95160.34;;;3.67;95.38
49999;BME280;68071;45.062;7.356;2023-03-03T00:56:14;95154.31;;;3.38;100.00
49999;BME280;68071;45.062;7.356;2023-03-03T00:59:18;95165.13;;;3.30;99.33
49999;BME280;68071;45.062;7.356;2023-03-03T01:02:23;95163.03;;;3.04;100.00
49999;BME280;68071;45.062;7.356;2023-03-03T01:05:27;95162.25;;;3.23;98.23
49999;BME280;68071;45.062;7.356;2023-03-03T01:08:32;95157.34;;;3.32;98.16
49999;BME280;68071;45.062;7.356;2023-03-03T01:11:36;95157.00;;;2.95;100.00
49999;BME280;68071;45.062;7.356;2023-03-03T01:14:40;95155.41;;;3.33;94.76
49999;BME280;68071;45.062;7.356;2023-03-03T01:17:45;95158.00;;;2.86;99.39
49999;BME280;68071;45.062;7.356;2023-03-03T01:20:49;95158.91;;;2.55;100.00
49999;BME280;68071;45.062;7.356;2023-03-03T01:23:53;95159.25;;;2.37;100.00
49999;BME280;68071;45.062;7.356;2023-03-03T01:26:57;95162.38;;;2.04;100.00
49999;BME280;68071;45.062;7.356;2023-03-03T01:30:02;95150.22;;;2.01;100.00
49999;BME280;68071;45.062;7.356;2023-03-03T01:33:07;95139.69;;;1.68;100.00
49999;BME280;68071;45.062;7.356;2023-03-03T01:36:11;95142.75;;;2.14;100.00
49999;BME280;68071;45.062;7.356;2023-03-03T01:39:15;95134.84;;;2.09;100.00
49999;BME280;68071;45.062;7.356;2023-03-03T01:42:20;95130.88;;;2.58;100.00
49999;BME280;68071;45.062;7.356;2023-03-03T01:45:29;95125.13;;;2.99;97.03
49999;BME280;68071;45.062;7.356;2023-03-03T01:48:38;95123.81;;;3.12;96.64
49999;BME280;68071;45.062;7.356;2023-03-03T01:51:53;95115.97;;;3.30;94.95
49999;BME280;68071;45.062;7.356;2023-03-03T01:55:04;95116.81;;;2.56;100.00
49999;BME280;68071;45.062;7.356;2023-03-03T02:01:25;95106.34;;;2.97;98.33
49999;BME280;68071;45.062;7.356;2023-03-03T02:04:30;95099.00;;;3.87;90.98
49999;BME280;68071;45.062;7.356;2023-03-03T02:07:34;95099.81;;;3.91;90.49
49999;BME280;68071;45.062;7.356;2023-03-03T02:10:39;95097.13;;;3.25;96.03
49999;BME280;68071;45.062;7.356;2023-03-03T02:13:43;95089.84;;;3.33;95.83
49999;BME280;68071;45.062;7.356;2023-03-03T02:16:46;95089.06;;;3.32;94.88
49999;BME280;68071;45.062;7.356;2023-03-03T02:23:12;95073.59;;;2.97;97.44
49999;BME280;68071;45.062;7.356;2023-03-03T02:26:28;95074.31;;;2.75;100.00
49999;BME280;68071;45.062;7.356;2023-03-03T02:29:38;95069.81;;;3.25;98.28
49999;BME280;68071;45.062;7.356;2023-03-03T02:32:43;95064.16;;;3.14;95.77
49999;BME280;68071;45.062;7.356;2023-03-03T02:35:47;95064.91;;;2.92;98.68
49999;BME280;68071;45.062;7.356;2023-03-03T02:45:26;95056.59;;;2.45;100.00
49999;BME280;68071;45.062;7.356;2023-03-03T02:48:30;95061.25;;;2.64;100.00
49999;BME280;68071;45.062;7.356;2023-03-03T02:51:39;95062.47;;;2.67;100.00
49999;BME280;68071;45.062;7.356;2023-03-03T02:54:43;95058.94;;;2.86;100.00
49999;BME280;68071;45.062;7.356;2023-03-03T02:57:47;95055.56;;;2.73;100.00
49999;BME280;68071;45.062;7.356;2023-03-03T03:00:51;95049.34;;;2.72;100.00
49999;BME280;68071;45.062;7.356;2023-03-03T03:03:59;95052.19;;;2.60;100.00
49999;BME280;68071;45.062;7.356;2023-03-03T03:07:03;95059.09;;;2.54;100.00
49999;BME280;68071;45.062;7.356;2023-03-03T03:10:09;95051.47;;;2.44;100.00
49999;BME280;68071;45.062;7.356;2023-03-03T03:13:15;95052.28;;;2.64;100.00
49999;BME280;68071;45.062;7.356;2023-03-03T03:16:21;95049.91;;;2.62;100.00
49999;BME280;68071;45.062;7.356;2023-03-03T03:19:25;95051.19;;;2.88;100.00
49999;BME280;68071;45.062;7.356;2023-03-03T03:22:30;95052.59;;;3.01;100.00
49999;BME280;68071;45.062;7.356;2023-03-03T03:25:34;95041.53;;;2.94;100.00
49999;BME280;68071;45.062;7.356;2023-03-03T03:28:41;95050.25;;;3.00;100.00
49999;BME280;68071;45.062;7.356;2023-03-03T03:31:45;95043.94;;;3.19;99.77
49999;BME280;68071;45.062;7.356;2023-03-03T03:34:50;95042.31;;;3.14;98.62
49999;BME280;68071;45.062;7.356;2023-03-03T03:37:54;95038.78;;;3.14;99.95
49999;BME280;68071;45.062;7.356;2023-03-03T03:40:59;95035.56;;;3.08;99.97
49999;BME280;68071;45.062;7.356;2023-03-03T03:44:04;95050.94;;;3.40;96.56
49999;BME280;68071;45.062;7.356;2023-03-03T03:47:08;95042.97;;;3.08;100.00
49999;BME280;68071;45.062;7.356;2023-03-03T03:50:13;95044.47;;;3.48;95.04
49999;BME280;68071;45.062;7.356;2023-03-03T03:53:19;95048.44;;;3.08;100.00
49999;BME280;68071;45.062;7.356;2023-03-03T03:56:23;95051.41;;;2.99;100.00
49999;BME280;68071;45.062;7.356;2023-03-03T03:59:32;95038.09;;;2.97;100.00
49999;BME280;68071;45.062;7.356;2023-03-03T04:02:36;95046.28;;;2.97;100.00
49999;BME280;68071;45.062;7.356;2023-03-03T04:05:41;95033.78;;;2.96;100.00
49999;BME280;68071;45.062;7.356;2023-03-03T04:08:47;95037.63;;;3.15;98.46
49999;BME280;68071;45.062;7.356;2023-03-03T04:11:53;95030.66;;;3.17;97.66
49999;BME280;68071;45.062;7.356;2023-03-03T04:14:57;95030.00;;;3.24;97.55
49999;BME280;68071;45.062;7.356;2023-03-03T04:18:02;95034.75;;;3.27;96.92
49999;BME280;68071;45.062;7.356;2023-03-03T04:21:12;95029.88;;;3.17;98.12
49999;BME280;68071;45.062;7.356;2023-03-03T04:24:17;95029.75;;;3.10;99.92
49999;BME280;68071;45.062;7.356;2023-03-03T04:27:24;95033.66;;;2.89;100.00
49999;BME280;68071;45.062;7.356;2023-03-03T04:30:28;95025.97;;;2.95;100.00
49999;BME280;68071;45.062;7.356;2023-03-03T04:33:33;95020.84;;;2.93;100.00
49999;BME280;68071;45.062;7.356;2023-03-03T04:36:40;95022.78;;;3.12;100.00
49999;BME280;68071;45.062;7.356;2023-03-03T04:39:44;95021.69;;;3.17;99.28
49999;BME280;68071;45.062;7.356;2023-03-03T04:42:50;95022.50;;;2.00;100.00
49999;BME280;68071;45.062;7.356;2023-03-03T04:45:55;95018.25;;;2.02;100.00
49999;BME280;68071;45.062;7.356;2023-03-03T04:49:00;95009.94;;;1.95;100.00
49999;BME280;68071;45.062;7.356;2023-03-03T04:52:04;95012.13;;;2.25;100.00
49999;BME280;68071;45.062;7.356;2023-03-03T04:55:09;95011.25;;;2.80;98.99
49999;BME280;68071;45.062;7.356;2023-03-03T04:58:14;95002.94;;;2.72;99.34
49999;BME280;68071;45.062;7.356;2023-03-03T05:01:19;95004.41;;;2.90;97.03
49999;BME280;68071;45.062;7.356;2023-03-03T05:04:23;95003.78;;;3.20;93.98
49999;BME280;68071;45.062;7.356;2023-03-03T05:07:27;95004.03;;;3.11;94.68
49999;BME280;68071;45.062;7.356;2023-03-03T05:10:30;95006.00;;;3.60;89.26
49999;BME280;68071;45.062;7.356;2023-03-03T05:13:34;94999.25;;;3.27;92.99
49999;BME280;68071;45.062;7.356;2023-03-03T05:16:38;94996.69;;;3.38;91.20
49999;BME280;68071;45.062;7.356;2023-03-03T05:19:42;94995.53;;;3.39;90.40
49999;BME280;68071;45.062;7.356;2023-03-03T05:22:46;94993.41;;;3.79;85.79
49999;BME280;68071;45.062;7.356;2023-03-03T05:25:50;94995.59;;;3.70;86.26
49999;BME280;68071;45.062;7.356;2023-03-03T05:28:54;95001.88;;;3.24;90.92
49999;BME280;68071;45.062;7.356;2023-03-03T05:31:58;94994.00;;;2.76;95.57
49999;BME280;68071;45.062;7.356;2023-03-03T05:35:04;94989.31;;;2.72;95.60
49999;BME280;68071;45.062;7.356;2023-03-03T05:38:08;94984.81;;;2.84;96.32
49999;BME280;68071;45.062;7.356;2023-03-03T05:41:12;94990.47;;;2.52;100.00
49999;BME280;68071;45.062;7.356;2023-03-03T05:44:16;94984.16;;;2.48;98.93
49999;BME280;68071;45.062;7.356;2023-03-03T05:47:20;94985.09;;;2.79;99.20
49999;BME280;68071;45.062;7.356;2023-03-03T05:50:24;94979.91;;;2.50;100.00
49999;BME280;68071;45.062;7.356;2023-03-03T05:53:28;94989.75;;;2.55;98.89
49999;BME280;68071;45.062;7.356;2023-03-03T05:56:32;94988.72;;;2.44;100.00
49999;BME280;68071;45.062;7.356;2023-03-03T05:59:36;94988.16;;;1.79;100.00
49999;BME280;68071;45.062;7.356;2023-03-03T06:02:41;94991.56;;;1.92;100.00
49999;BME280;68071;45.062;7.356;2023-03-03T06:05:45;94992.53;;;2.19;100.00
49999;BME280;68071;45.062;7.356;2023-03-03T06:08:49;94981.91;;;2.14;99.27
49999;BME280;68071;45.062;7.356;2023-03-03T06:11:53;94988.75;;;1.36;100.00
49999;BME280;68071;45.062;7.356;2023-03-03T06:14:57;94993.03;;;1.70;100.00
49999;BME280;68071;45.062;7.356;2023-03-03T06:18:00;94991.63;;;1.60;100.00
49999;BME280;68071;45.062;7.356;2023-03-03T06:21:04;94999.94;;;1.83;100.00
49999;BME280;68071;45.062;7.356;2023-03-03T06:24:09;94997.38;;;2.10;100.00
49999;BME280;68071;45.062;7.356;2023-03-03T06:27:13;94994.97;;;2.05;100.00
49999;BME280;68071;45.062;7.356;2023-03-03T06:30:17;94998.91;;;2.07;100.00
49999;BME280;68071;45.062;7.356;2023-03-03T06:33:22;95006.06;;;1.96;100.00
49999;BME280;68071;45.062;7.356;2023-03-03T06:36:26;94996.09;;;2.04;100.00
49999;BME280;68071;45.062;7.356;2023-03-03T06:39:30;95002.47;;;1.92;100.00
49999;BME280;68071;45.062;7.356;2023-03-03T06:42:33;95003.00;;;1.81;100.00
49999;BME280;68071;45.062;7.356;2023-03-03T06:45:38;95003.50;;;1.68;100.00
49999;BME280;68071;45.062;7.356;2023-03-03T06:48:41;95000.91;;;1.75;100.00
49999;BME280;68071;45.062;7.356;2023-03-03T06:51:45;94992.84;;;1.78;100.00
49999;BME280;68071;45.062;7.356;2023-03-03T06:54:57;95011.91;;;1.78;100.00
49999;BME280;68071;45.062;7.356;2023-03-03T06:58:07;95010.66;;;1.76;100.00
49999;BME280;68071;45.062;7.356;2023-03-03T07:01:15;95013.75;;;2.10;100.00
49999;BME280;68071;45.062;7.356;2023-03-03T07:04:27;95019.09;;;2.42;100.00
49999;BME280;68071;45.062;7.356;2023-03-03T07:07:32;95014.00;;;2.40;100.00
49999;BME280;68071;45.062;7.356;2023-03-03T07:10:37;95018.16;;;2.34;100.00
49999;BME280;68071;45.062;7.356;2023-03-03T07:13:43;95014.44;;;2.62;100.00
49999;BME280;68071;45.062;7.356;2023-03-03T07:16:58;95026.69;;;2.72;100.00
49999;BME280;68071;45.062;7.356;2023-03-03T07:20:14;95019.94;;;2.85;100.00
49999;BME280;68071;45.062;7.356;2023-03-03T07:23:25;95018.88;;;2.90;100.00
49999;BME280;68071;45.062;7.356;2023-03-03T07:26:31;95026.84;;;3.22;100.00
49999;BME280;68071;45.062;7.356;2023-03-03T07:29:36;95030.69;;;3.41;100.00
49999;BME280;68071;45.062;7.356;2023-03-03T07:32:45;95023.50;;;3.32;100.00
49999;BME280;68071;45.062;7.356;2023-03-03T07:35:50;95028.38;;;3.43;100.00
49999;BME280;68071;45.062;7.356;2023-03-03T07:38:59;95040.25;;;3.54;100.00
49999;BME280;68071;45.062;7.356;2023-03-03T07:42:14;95038.50;;;3.66;100.00
49999;BME280;68071;45.062;7.356;2023-03-03T07:45:27;95041.41;;;3.76;100.00
49999;BME280;68071;45.062;7.356;2023-03-03T07:48:40;95041.31;;;3.96;100.00
49999;BME280;68071;45.062;7.356;2023-03-03T07:51:44;95043.41;;;4.06;100.00
49999;BME280;68071;45.062;7.356;2023-03-03T07:54:48;95045.09;;;4.15;99.97
49999;BME280;68071;45.062;7.356;2023-03-03T07:57:53;95042.16;;;4.27;95.20
49999;BME280;68071;45.062;7.356;2023-03-03T08:01:23;95041.28;;;4.50;93.78
49999;BME280;68071;45.062;7.356;2023-03-03T08:04:43;95041.94;;;4.74;93.21
49999;BME280;68071;45.062;7.356;2023-03-03T08:08:12;95038.69;;;4.95;90.92
49999;BME280;68071;45.062;7.356;2023-03-03T08:11:24;95043.91;;;5.11;89.57
49999;BME280;68071;45.062;7.356;2023-03-03T08:14:30;95055.31;;;5.13;87.45
49999;BME280;68071;45.062;7.356;2023-03-03T08:17:38;95049.69;;;5.36;85.92
49999;BME280;68071;45.062;7.356;2023-03-03T08:20:49;95054.50;;;5.50;85.21
49999;BME280;68071;45.062;7.356;2023-03-03T08:23:53;95051.28;;;5.86;84.85
49999;BME280;68071;45.062;7.356;2023-03-03T08:26:57;95055.00;;;5.63;84.03
49999;BME280;68071;45.062;7.356;2023-03-03T08:30:01;95057.41;;;5.68;83.02
49999;BME280;68071;45.062;7.356;2023-03-03T08:33:05;95055.41;;;5.65;83.85
49999;BME280;68071;45.062;7.356;2023-03-03T08:36:10;95055.59;;;5.87;83.06
49999;BME280;68071;45.062;7.356;2023-03-03T08:39:13;95053.31;;;5.96;83.54
49999;BME280;68071;45.062;7.356;2023-03-03T08:42:18;95052.88;;;5.90;83.66
49999;BME280;68071;45.062;7.356;2023-03-03T08:45:21;95064.00;;;6.05;82.87
49999;BME280;68071;45.062;7.356;2023-03-03T08:48:26;95058.19;;;6.14;82.88
49999;BME280;68071;45.062;7.356;2023-03-03T08:51:30;95054.25;;;6.11;82.03
49999;BME280;68071;45.062;7.356;2023-03-03T08:54:37;95054.75;;;6.28;78.66
49999;BME280;68071;45.062;7.356;2023-03-03T08:57:41;95061.81;;;6.29;77.52
49999;BME280;68071;45.062;7.356;2023-03-03T09:00:45;95054.16;;;6.60;75.86
49999;BME280;68071;45.062;7.356;2023-03-03T09:03:48;95067.59;;;6.87;75.74
49999;BME280;68071;45.062;7.356;2023-03-03T09:06:52;95059.75;;;6.85;74.94
49999;BME280;68071;45.062;7.356;2023-03-03T09:09:57;95060.41;;;6.57;77.68
49999;BME280;68071;45.062;7.356;2023-03-03T09:13:06;95063.97;;;6.64;75.78
49999;BME280;68071;45.062;7.356;2023-03-03T09:16:14;95063.63;;;6.77;77.15
49999;BME280;68071;45.062;7.356;2023-03-03T09:19:31;95059.72;;;6.71;76.28
49999;BME280;68071;45.062;7.356;2023-03-03T09:22:36;95060.25;;;7.13;79.10
49999;BME280;68071;45.062;7.356;2023-03-03T09:25:40;95053.63;;;7.24;76.65
49999;BME280;68071;45.062;7.356;2023-03-03T09:28:44;95055.84;;;6.93;74.22
49999;BME280;68071;45.062;7.356;2023-03-03T09:31:56;95059.88;;;7.25;73.19
49999;BME280;68071;45.062;7.356;2023-03-03T09:35:39;95052.38;;;7.11;72.86
49999;BME280;68071;45.062;7.356;2023-03-03T09:38:44;95052.50;;;7.58;73.18
49999;BME280;68071;45.062;7.356;2023-03-03T09:42:29;95054.50;;;7.65;73.86
49999;BME280;68071;45.062;7.356;2023-03-03T09:56:15;95053.69;;;8.26;71.70
49999;BME280;68071;45.062;7.356;2023-03-03T10:02:45;95043.06;;;8.06;74.70
49999;BME280;68071;45.062;7.356;2023-03-03T10:16:21;95047.41;;;8.03;70.66
49999;BME280;68071;45.062;7.356;2023-03-03T10:29:41;95043.81;;;8.65;68.02
49999;BME280;68071;45.062;7.356;2023-03-03T10:33:49;95040.66;;;8.70;67.91
49999;BME280;68071;45.062;7.356;2023-03-03T10:56:57;95060.69;;;8.74;68.69
49999;BME280;68071;45.062;7.356;2023-03-03T11:03:30;95064.91;;;9.07;69.77
49999;BME280;68071;45.062;7.356;2023-03-03T11:10:03;95068.84;;;9.06;68.80
49999;BME280;68071;45.062;7.356;2023-03-03T11:16:52;95067.22;;;9.23;68.51
49999;BME280;68071;45.062;7.356;2023-03-03T11:20:25;95063.56;;;9.45;63.19
49999;BME280;68071;45.062;7.356;2023-03-03T11:23:49;95062.06;;;9.29;68.36
49999;BME280;68071;45.062;7.356;2023-03-03T11:27:17;95054.72;;;9.68;62.34
49999;BME280;68071;45.062;7.356;2023-03-03T11:40:29;95049.13;;;9.79;62.56
49999;BME280;68071;45.062;7.356;2023-03-03T11:43:37;95038.50;;;9.77;60.17
49999;BME280;68071;45.062;7.356;2023-03-03T11:47:15;95035.63;;;9.35;63.30
49999;BME280;68071;45.062;7.356;2023-03-03T11:50:54;95039.53;;;9.42;62.61
49999;BME280;68071;45.062;7.356;2023-03-03T12:01:02;95027.66;;;9.52;64.47
49999;BME280;68071;45.062;7.356;2023-03-03T12:04:26;95023.22;;;10.14;59.32
49999;BME280;68071;45.062;7.356;2023-03-03T12:11:27;95013.72;;;9.74;64.56
49999;BME280;68071;45.062;7.356;2023-03-03T12:21:53;95006.53;;;9.80;59.47
49999;BME280;68071;45.062;7.356;2023-03-03T12:28:24;94995.19;;;9.71;61.75
49999;BME280;68071;45.062;7.356;2023-03-03T12:31:50;94987.94;;;9.91;63.31
49999;BME280;68071;45.062;7.356;2023-03-03T12:38:54;94989.34;;;10.10;63.09
49999;BME280;68071;45.062;7.356;2023-03-03T12:41:59;94990.41;;;10.20;62.24
49999;BME280;68071;45.062;7.356;2023-03-03T12:45:40;94975.31;;;10.32;60.01
49999;BME280;68071;45.062;7.356;2023-03-03T12:48:46;94978.72;;;10.09;61.88
49999;BME280;68071;45.062;7.356;2023-03-03T12:55:56;94975.78;;;9.81;63.66
49999;BME280;68071;45.062;7.356;2023-03-03T13:09:18;94976.75;;;10.06;60.06
49999;BME280;68071;45.062;7.356;2023-03-03T13:16:14;94979.34;;;10.62;60.23
49999;BME280;68071;45.062;7.356;2023-03-03T13:19:26;94983.84;;;10.07;61.43
49999;BME280;68071;45.062;7.356;2023-03-03T13:22:58;94981.00;;;10.18;63.08
49999;BME280;68071;45.062;7.356;2023-03-03T13:26:19;94972.75;;;10.52;61.46
49999;BME280;68071;45.062;7.356;2023-03-03T13:29:50;94968.53;;;10.40;60.77
49999;BME280;68071;45.062;7.356;2023-03-03T13:33:04;94966.13;;;10.46;60.60
49999;BME280;68071;45.062;7.356;2023-03-03T13:36:13;94970.19;;;10.69;60.99
49999;BME280;68071;45.062;7.356;2023-03-03T13:39:29;94965.56;;;10.20;61.11
49999;BME280;68071;45.062;7.356;2023-03-03T13:49:30;94971.53;;;10.15;64.66
49999;BME280;68071;45.062;7.356;2023-03-03T13:59:43;94971.44;;;11.26;60.79
49999;BME280;68071;45.062;7.356;2023-03-03T14:06:16;94962.19;;;11.09;60.11
49999;BME280;68071;45.062;7.356;2023-03-03T14:12:46;94954.97;;;10.88;64.88
49999;BME280;68071;45.062;7.356;2023-03-03T14:16:00;94953.69;;;11.24;59.85
49999;BME280;68071;45.062;7.356;2023-03-03T14:19:14;94956.38;;;11.00;61.51
49999;BME280;68071;45.062;7.356;2023-03-03T14:22:37;94957.16;;;10.69;61.85
49999;BME280;68071;45.062;7.356;2023-03-03T14:26:12;94951.13;;;10.78;63.44
49999;BME280;68071;45.062;7.356;2023-03-03T14:29:36;94953.94;;;11.33;61.77
49999;BME280;68071;45.062;7.356;2023-03-03T14:32:40;94952.13;;;11.23;61.73
49999;BME280;68071;45.062;7.356;2023-03-03T14:36:05;94944.69;;;11.16;61.34
49999;BME280;68071;45.062;7.356;2023-03-03T14:42:33;94945.41;;;11.24;61.64
49999;BME280;68071;45.062;7.356;2023-03-03T14:45:40;94939.50;;;10.90;62.30
49999;BME280;68071;45.062;7.356;2023-03-03T14:48:52;94945.88;;;10.87;63.04
49999;BME280;68071;45.062;7.356;2023-03-03T14:55:36;94942.25;;;10.94;63.13
49999;BME280;68071;45.062;7.356;2023-03-03T14:58:42;94947.59;;;11.36;61.41
49999;BME280;68071;45.062;7.356;2023-03-03T15:01:46;94937.00;;;11.55;60.34
49999;BME280;68071;45.062;7.356;2023-03-03T15:08:33;94943.34;;;11.79;58.17
49999;BME280;68071;45.062;7.356;2023-03-03T15:11:37;94937.44;;;11.77;57.79
49999;BME280;68071;45.062;7.356;2023-03-03T15:14:44;94936.56;;;11.60;58.13
49999;BME280;68071;45.062;7.356;2023-03-03T15:21:06;94947.75;;;11.76;57.70
49999;BME280;68071;45.062;7.356;2023-03-03T15:24:22;94940.94;;;11.81;56.91
49999;BME280;68071;45.062;7.356;2023-03-03T15:27:36;94949.06;;;11.68;56.42
49999;BME280;68071;45.062;7.356;2023-03-03T15:37:37;94948.69;;;11.66;56.82
49999;BME280;68071;45.062;7.356;2023-03-03T15:40:47;94943.47;;;11.72;56.40
49999;BME280;68071;45.062;7.356;2023-03-03T15:44:08;94950.63;;;11.69;56.27
49999;BME280;68071;45.062;7.356;2023-03-03T15:57:14;94954.16;;;11.93;55.17
49999;BME280;68071;45.062;7.356;2023-03-03T16:04:14;94955.31;;;12.20;54.33
49999;BME280;68071;45.062;7.356;2023-03-03T16:07:28;94954.44;;;12.47;53.97
49999;BME280;68071;45.062;7.356;2023-03-03T16:11:11;94962.63;;;12.54;53.84
49999;BME280;68071;45.062;7.356;2023-03-03T16:31:20;94968.16;;;8.87;73.57
49999;BME280;68071;45.062;7.356;2023-03-03T16:37:36;94984.47;;;8.27;77.07
49999;BME280;68071;45.062;7.356;2023-03-03T16:40:56;94987.63;;;8.18;77.65
49999;BME280;68071;45.062;7.356;2023-03-03T16:48:10;94997.91;;;7.75;82.52
49999;BME280;68071;45.062;7.356;2023-03-03T16:54:46;95004.56;;;7.55;84.16
49999;BME280;68071;45.062;7.356;2023-03-03T17:18:22;95032.97;;;6.64;87.65
49999;BME280;68071;45.062;7.356;2023-03-03T17:28:38;95040.78;;;6.51;87.18
49999;BME280;68071;45.062;7.356;2023-03-03T17:35:39;95052.75;;;6.99;81.58
49999;BME280;68071;45.062;7.356;2023-03-03T17:45:32;95064.94;;;6.27;85.97
49999;BME280;68071;45.062;7.356;2023-03-03T17:48:57;95070.72;;;5.66;90.08
49999;BME280;68071;45.062;7.356;2023-03-03T17:58:53;95068.50;;;5.86;86.81
49999;BME280;68071;45.062;7.356;2023-03-03T18:02:25;95082.50;;;6.15;84.37
49999;BME280;68071;45.062;7.356;2023-03-03T18:13:12;95089.88;;;6.08;83.16
49999;BME280;68071;45.062;7.356;2023-03-03T18:26:40;95102.41;;;5.26;88.90
49999;BME280;68071;45.062;7.356;2023-03-03T18:33:12;95103.81;;;5.47;88.09
49999;BME280;68071;45.062;7.356;2023-03-03T18:42:45;95115.66;;;5.99;84.35
49999;BME280;68071;45.062;7.356;2023-03-03T18:45:52;95112.88;;;5.92;85.55
49999;BME280;68071;45.062;7.356;2023-03-03T18:49:09;95120.59;;;5.83;86.44
49999;BME280;68071;45.062;7.356;2023-03-03T18:52:24;95118.31;;;5.88;87.16
49999;BME280;68071;45.062;7.356;2023-03-03T18:55:39;95119.09;;;5.89;87.11
49999;BME280;68071;45.062;7.356;2023-03-03T18:58:44;95117.78;;;6.17;83.97
49999;BME280;68071;45.062;7.356;2023-03-03T19:01:51;95120.16;;;5.77;87.05
49999;BME280;68071;45.062;7.356;2023-03-03T19:05:07;95127.31;;;5.48;89.11
49999;BME280;68071;45.062;7.356;2023-03-03T19:08:29;95127.38;;;5.17;91.35
49999;BME280;68071;45.062;7.356;2023-03-03T19:11:50;95130.84;;;5.48;89.17
49999;BME280;68071;45.062;7.356;2023-03-03T19:14:55;95128.75;;;5.34;88.96
49999;BME280;68071;45.062;7.356;2023-03-03T19:18:24;95131.78;;;5.63;86.76
49999;BME280;68071;45.062;7.356;2023-03-03T19:21:32;95138.88;;;5.68;86.25
49999;BME280;68071;45.062;7.356;2023-03-03T19:24:36;95144.56;;;5.48;87.59
49999;BME280;68071;45.062;7.356;2023-03-03T19:31:15;95146.44;;;5.82;84.49
49999;BME280;68071;45.062;7.356;2023-03-03T19:34:31;95146.91;;;5.50;86.14
49999;BME280;68071;45.062;7.356;2023-03-03T19:42:05;95147.81;;;5.23;87.37
49999;BME280;68071;45.062;7.356;2023-03-03T19:52:28;95162.34;;;4.97;88.42
49999;BME280;68071;45.062;7.356;2023-03-03T19:56:03;95169.44;;;5.02;88.03
49999;BME280;68071;45.062;7.356;2023-03-03T20:02:34;95175.34;;;5.04;87.54
49999;BME280;68071;45.062;7.356;2023-03-03T20:06:11;95172.59;;;5.04;87.68
49999;BME280;68071;45.062;7.356;2023-03-03T20:10:00;95181.88;;;4.42;91.86
49999;BME280;68071;45.062;7.356;2023-03-03T20:13:44;95193.25;;;4.44;92.27
49999;BME280;68071;45.062;7.356;2023-03-03T20:16:54;95193.63;;;4.42;91.91
49999;BME280;68071;45.062;7.356;2023-03-03T20:27:17;95204.31;;;4.28;93.63
49999;BME280;68071;45.062;7.356;2023-03-03T20:37:07;95215.22;;;4.74;93.31
49999;BME280;68071;45.062;7.356;2023-03-03T20:57:20;95230.03;;;5.27;90.06
49999;BME280;68071;45.062;7.356;2023-03-03T21:00:39;95235.84;;;5.22;91.35
49999;BME280;68071;45.062;7.356;2023-03-03T21:03:48;95226.13;;;5.58;88.50
49999;BME280;68071;45.062;7.356;2023-03-03T21:06:53;95236.84;;;5.71;88.10
49999;BME280;68071;45.062;7.356;2023-03-03T21:10:11;95227.41;;;5.68;88.03
49999;BME280;68071;45.062;7.356;2023-03-03T21:16:31;95232.16;;;5.71;87.40
49999;BME280;68071;45.062;7.356;2023-03-03T21:19:35;95232.34;;;5.55;90.17
49999;BME280;68071;45.062;7.356;2023-03-03T21:22:39;95241.28;;;5.49;92.15
49999;BME280;68071;45.062;7.356;2023-03-03T21:28:59;95235.63;;;5.34;93.37
49999;BME280;68071;45.062;7.356;2023-03-03T21:32:06;95243.59;;;5.47;91.22
49999;BME280;68071;45.062;7.356;2023-03-03T21:35:16;95253.50;;;5.55;89.62
49999;BME280;68071;45.062;7.356;2023-03-03T21:38:34;95249.22;;;5.57;89.74
49999;BME280;68071;45.062;7.356;2023-03-03T21:42:15;95250.09;;;5.35;91.17
49999;BME280;68071;45.062;7.356;2023-03-03T21:45:22;95264.94;;;5.03;93.15
49999;BME280;68071;45.062;7.356;2023-03-03T21:48:27;95268.91;;;4.82;94.21
49999;BME280;68071;45.062;7.356;2023-03-03T21:51:30;95266.25;;;4.86;93.03
49999;BME280;68071;45.062;7.356;2023-03-03T21:54:34;95260.38;;;5.41;89.12
49999;BME280;68071;45.062;7.356;2023-03-03T21:57:38;95259.28;;;5.46;88.78
49999;BME280;68071;45.062;7.356;2023-03-03T22:00:42;95262.44;;;5.48;89.00
49999;BME280;68071;45.062;7.356;2023-03-03T22:03:47;95267.25;;;5.28;90.92
49999;BME280;68071;45.062;7.356;2023-03-03T22:06:50;95265.59;;;5.20;92.60
49999;BME280;68071;45.062;7.356;2023-03-03T22:09:55;95261.66;;;5.21;93.04
49999;BME280;68071;45.062;7.356;2023-03-03T22:12:59;95264.09;;;5.26;91.76
49999;BME280;68071;45.062;7.356;2023-03-03T22:16:03;95268.25;;;5.16;91.10
49999;BME280;68071;45.062;7.356;2023-03-03T22:19:10;95269.75;;;5.10;91.44
49999;BME280;68071;45.062;7.356;2023-03-03T22:22:14;95270.09;;;5.08;92.22
49999;BME280;68071;45.062;7.356;2023-03-03T22:25:18;95272.00;;;5.04;93.20
49999;BME280;68071;45.062;7.356;2023-03-03T22:28:22;95271.25;;;5.07;93.21
49999;BME280;68071;45.062;7.356;2023-03-03T22:31:26;95272.97;;;5.46;89.09
49999;BME280;68071;45.062;7.356;2023-03-03T22:34:31;95268.28;;;5.81;84.84
49999;BME280;68071;45.062;7.356;2023-03-03T22:37:35;95268.84;;;5.59;87.95